createdAt,value
2018-01-30T00:00:29.685Z,0.8
2018-01-30T00:02:25.893Z,0.7
2018-01-30T00:15:25.854Z,0.7
2018-01-30T00:16:25.851Z,0.8
2018-01-30T00:17:25.824Z,0.9
2018-01-30T00:19:26.085Z,0.8
2018-01-30T00:20:25.876Z,0.7
2018-01-30T00:30:25.852Z,0.7
2018-01-30T00:33:26.081Z,0.8
2018-01-30T00:34:25.857Z,0.9
2018-01-30T00:37:25.885Z,1.0
2018-01-30T00:45:31.087Z,1.0
2018-01-30T01:00:28.393Z,1.0
2018-01-30T01:15:26.149Z,1.0
2018-01-30T01:30:26.154Z,0.9
2018-01-30T01:32:25.867Z,0.8
2018-01-30T01:33:25.874Z,0.7
2018-01-30T01:43:25.891Z,0.6
2018-01-30T01:44:26.072Z,0.5
2018-01-30T01:46:26.961Z,0.6
2018-01-30T01:47:25.888Z,0.7
2018-01-30T01:50:26.071Z,0.8
2018-01-30T01:59:26.167Z,0.9
2018-01-30T02:00:25.866Z,0.9
2018-01-30T02:04:26.130Z,0.8
2018-01-30T02:06:27.005Z,0.7
2018-01-30T02:09:26.073Z,0.6
2018-01-30T02:10:25.866Z,0.5
2018-01-30T02:14:26.095Z,0.4
2018-01-30T02:15:25.870Z,0.4
2018-01-30T02:17:25.897Z,0.5
2018-01-30T02:19:26.082Z,0.6
2018-01-30T02:21:25.871Z,0.7
2018-01-30T02:24:26.107Z,0.8
2018-01-30T02:27:25.928Z,0.9
2018-01-30T02:30:26.117Z,0.9
2018-01-30T02:36:26.124Z,0.8
2018-01-30T02:39:25.867Z,0.7
2018-01-30T02:41:25.895Z,0.8
2018-01-30T02:45:26.157Z,0.8
2018-01-30T02:47:25.897Z,0.9
2018-01-30T02:49:25.866Z,0.8
2018-01-30T02:50:26.072Z,0.7
2018-01-30T02:53:25.894Z,0.6
2018-01-30T02:54:25.865Z,0.7
2018-01-30T02:55:26.074Z,0.6
2018-01-30T02:56:25.869Z,0.5
2018-01-30T02:58:25.888Z,0.4
2018-01-30T02:59:25.865Z,0.3
2018-01-30T03:00:28.515Z,0.3
2018-01-30T03:01:25.867Z,0.2
2018-01-30T03:02:25.902Z,0.1
2018-01-30T06:14:26.160Z,0.1
2018-01-30T06:15:25.849Z,0.1
2018-01-30T06:16:25.852Z,0.2
2018-01-30T06:17:25.848Z,0.3
2018-01-30T06:19:26.136Z,0.4
2018-01-30T06:20:25.851Z,0.5
2018-01-30T06:21:25.857Z,0.6
2018-01-30T06:22:25.853Z,0.7
2018-01-30T06:23:25.850Z,0.9
2018-01-30T06:24:26.085Z,1.1
2018-01-30T06:25:25.882Z,1.3
2018-01-30T06:26:25.853Z,1.5
2018-01-30T06:27:25.822Z,1.8
2018-01-30T06:28:25.853Z,2.1
2018-01-30T06:29:26.087Z,2.5
2018-01-30T06:30:25.850Z,2.9
2018-01-30T06:31:25.851Z,3.4
2018-01-30T06:32:25.852Z,4.0
2018-01-30T06:33:25.853Z,4.7
2018-01-30T06:34:26.092Z,5.6
2018-01-30T06:35:25.837Z,6.7
2018-01-30T06:36:25.852Z,7.9
2018-01-30T06:37:25.854Z,9.3
2018-01-30T06:38:25.852Z,11.1
2018-01-30T06:39:26.087Z,13.1
2018-01-30T06:40:25.850Z,15.6
2018-01-30T06:41:25.855Z,18.4
2018-01-30T06:42:25.856Z,21.7
2018-01-30T06:43:25.858Z,25.7
2018-01-30T06:44:26.094Z,30.2
2018-01-30T06:45:25.858Z,35.5
2018-01-30T06:46:25.855Z,41.6
2018-01-30T06:47:25.857Z,48.7
2018-01-30T06:48:25.861Z,57.1
2018-01-30T06:49:26.104Z,66.7
2018-01-30T06:50:25.859Z,77.9
2018-01-30T06:51:25.859Z,90.9
2018-01-30T06:52:25.859Z,106.1
2018-01-30T06:53:25.859Z,123.3
2018-01-30T06:54:26.100Z,143.0
2018-01-30T06:55:25.860Z,165.5
2018-01-30T06:56:25.859Z,191.3
2018-01-30T06:57:25.858Z,220.8
2018-01-30T06:58:25.862Z,254.0
2018-01-30T06:59:26.098Z,292.2
2018-01-30T07:00:25.861Z,335.7
2018-01-30T07:01:25.861Z,384.3
2018-01-30T07:02:25.860Z,436.9
2018-01-30T07:03:25.861Z,495.7
2018-01-30T07:04:26.096Z,561.1
2018-01-30T07:05:25.863Z,633.0
2018-01-30T07:06:25.858Z,711.7
2018-01-30T07:07:25.858Z,797.3
2018-01-30T07:08:25.867Z,890.2
2018-01-30T07:09:26.096Z,990.7
2018-01-30T07:10:25.861Z,1099.0
2018-01-30T07:11:25.864Z,1214.8
2018-01-30T07:12:25.869Z,1338.4
2018-01-30T07:13:25.860Z,1470.3
2018-01-30T07:14:26.117Z,1610.1
2018-01-30T07:15:25.889Z,1758.3
2018-01-30T07:17:25.846Z,1931.0
2018-01-30T07:18:25.850Z,2115.1
2018-01-30T07:19:26.056Z,2309.5
2018-01-30T07:20:25.875Z,2515.5
2018-01-30T07:21:25.850Z,2734.7
2018-01-30T07:22:25.850Z,2967.9
2018-01-30T07:23:25.847Z,3214.5
2018-01-30T07:24:26.120Z,3474.2
2018-01-30T07:25:25.885Z,3746.5
2018-01-30T07:26:25.851Z,4031.4
2018-01-30T07:27:25.847Z,4327.9
2018-01-30T07:28:25.848Z,4634.3
2018-01-30T07:29:26.056Z,4949.3
2018-01-30T07:30:25.854Z,5272.3
2018-01-30T07:31:25.852Z,5604.3
2018-01-30T07:32:25.850Z,5930.1
2018-01-30T07:33:25.848Z,6264.2
2018-01-30T07:34:26.052Z,6610.1
2018-01-30T07:35:25.851Z,6971.7
2018-01-30T07:36:25.875Z,7350.7
2018-01-30T07:37:25.845Z,7745.5
2018-01-30T07:38:25.846Z,8157.1
2018-01-30T07:39:26.055Z,8576.8
2018-01-30T07:40:25.845Z,8992.9
2018-01-30T07:41:25.871Z,9413.3
2018-01-30T07:42:25.848Z,9855.1
2018-01-30T07:43:25.846Z,10389.9
2018-01-30T07:44:26.050Z,10984.8
2018-01-30T07:45:25.848Z,11537.3
2018-01-30T07:46:25.870Z,12054.4
2018-01-30T07:47:25.846Z,12577.9
2018-01-30T07:48:25.846Z,13140.9
2018-01-30T07:49:26.053Z,13808.4
2018-01-30T07:50:25.841Z,14432.8
2018-01-30T07:51:25.874Z,15068.4
2018-01-30T07:52:25.841Z,15709.3
2018-01-30T07:53:25.843Z,16366.6
2018-01-30T07:54:26.044Z,16989.7
2018-01-30T07:55:25.842Z,17458.8
2018-01-30T07:56:25.894Z,17866.6
2018-01-30T07:57:25.845Z,18275.9
2018-01-30T07:58:25.840Z,18684.2
2018-01-30T07:59:26.050Z,18988.1
2018-01-30T08:00:25.840Z,19274.3
2018-01-30T08:01:25.842Z,19562.9
2018-01-30T08:02:25.843Z,19848.3
2018-01-30T08:03:25.840Z,20119.8
2018-01-30T08:04:26.047Z,20250.5
2018-01-30T08:05:25.843Z,20373.5
2018-01-30T08:06:25.847Z,20441.1
2018-01-30T08:07:26.907Z,20468.4
2018-01-30T08:08:25.842Z,20442.9
2018-01-30T08:09:26.052Z,20428.5
2018-01-30T08:10:25.846Z,20553.9
2018-01-30T08:11:25.844Z,20720.1
2018-01-30T08:12:25.871Z,20838.2
2018-01-30T08:13:25.878Z,20831.5
2018-01-30T08:14:26.087Z,20812.7
2018-01-30T08:15:25.843Z,20815.6
2018-01-30T08:16:25.843Z,20866.5
2018-01-30T08:17:25.841Z,20936.9
2018-01-30T08:18:25.877Z,21107.5
2018-01-30T08:19:26.113Z,21376.7
2018-01-30T08:20:25.840Z,21610.9
2018-01-30T08:21:25.847Z,21773.7
2018-01-30T08:22:25.841Z,22105.1
2018-01-30T08:23:25.843Z,22540.5
2018-01-30T08:24:26.081Z,22973.9
2018-01-30T08:25:25.842Z,23400.3
2018-01-30T08:27:25.828Z,23822.7
2018-01-30T08:28:25.828Z,24264.7
2018-01-30T08:29:26.074Z,24728.4
2018-01-30T08:30:25.827Z,25216.1
2018-01-30T08:31:25.826Z,25694.7
2018-01-30T08:32:25.828Z,26155.1
2018-01-30T08:33:25.830Z,26573.9
2018-01-30T08:34:26.062Z,26774.2
2018-01-30T08:35:25.826Z,26738.4
2018-01-30T08:36:25.826Z,26718.5
2018-01-30T08:37:25.826Z,26982.5
2018-01-30T08:38:25.825Z,27231.6
2018-01-30T08:39:26.064Z,27335.6
2018-01-30T08:40:25.825Z,27609.6
2018-01-30T08:41:25.870Z,27967.5
2018-01-30T08:42:25.827Z,28333.7
2018-01-30T08:43:25.827Z,28732.9
2018-01-30T08:44:26.069Z,29140.6
2018-01-30T08:45:25.825Z,29602.3
2018-01-30T08:46:25.827Z,30126.0
2018-01-30T08:47:25.829Z,30682.3
2018-01-30T08:48:25.825Z,31299.4
2018-01-30T08:49:26.071Z,31977.3
2018-01-30T08:50:25.827Z,32809.8
2018-01-30T08:51:25.827Z,33729.3
2018-01-30T08:52:25.832Z,34470.3
2018-01-30T08:53:25.827Z,35123.2
2018-01-30T08:54:26.065Z,35828.9
2018-01-30T08:55:25.799Z,36437.7
2018-01-30T08:56:25.797Z,37082.9
2018-01-30T08:57:25.832Z,37803.5
2018-01-30T08:58:25.828Z,38539.3
2018-01-30T08:59:26.057Z,39294.4
2018-01-30T09:00:25.829Z,40056.3
2018-01-30T09:01:25.858Z,40823.6
2018-01-30T09:02:25.826Z,41592.7
2018-01-30T09:03:25.827Z,42238.9
2018-01-30T09:04:26.032Z,42863.1
2018-01-30T09:05:25.830Z,43465.3
2018-01-30T09:06:25.914Z,44227.5
2018-01-30T09:07:25.830Z,45236.9
2018-01-30T09:08:25.827Z,46227.2
2018-01-30T09:09:26.037Z,47126.4
2018-01-30T09:10:25.800Z,48125.1
2018-01-30T09:11:25.868Z,49198.2
2018-01-30T09:12:25.827Z,50310.0
2018-01-30T09:13:25.830Z,51376.4
2018-01-30T09:14:26.036Z,52444.5
2018-01-30T09:15:25.797Z,53028.4
2018-01-30T09:16:25.860Z,53586.9
2018-01-30T09:17:25.832Z,54516.9
2018-01-30T09:18:25.830Z,55299.2
2018-01-30T09:19:26.061Z,56110.0
2018-01-30T09:20:25.831Z,57404.3
2018-01-30T09:21:25.869Z,57842.7
2018-01-30T09:22:25.831Z,58025.6
2018-01-30T09:23:25.832Z,58451.1
2018-01-30T09:24:26.032Z,59283.5
2018-01-30T09:25:25.829Z,59937.3
2018-01-30T09:26:25.864Z,60398.2
2018-01-30T09:27:25.833Z,60733.7
2018-01-30T09:28:25.833Z,61048.9
2018-01-30T09:29:26.039Z,61323.7
2018-01-30T09:30:25.842Z,62033.3
2018-01-30T09:31:25.868Z,62726.6
2018-01-30T09:32:25.834Z,62985.8
2018-01-30T09:33:25.837Z,63305.1
2018-01-30T09:34:26.043Z,63777.1
2018-01-30T09:36:25.952Z,64420.9
2018-01-30T09:37:25.868Z,65044.1
2018-01-30T09:38:25.805Z,64964.7
2018-01-30T09:39:26.043Z,64151.9
2018-01-30T09:45:26.113Z,64151.9
2018-01-30T09:47:25.838Z,64159.9
2018-01-30T09:48:25.869Z,64312.1
2018-01-30T09:53:25.840Z,64722.2
2018-01-30T09:54:25.870Z,65535.0
2018-01-30T10:00:25.872Z,65535.0
2018-01-30T10:15:26.945Z,65535.0
2018-01-30T10:30:26.163Z,65535.0
2018-01-30T10:45:27.196Z,65535.0
2018-01-30T10:46:25.844Z,65513.8
2018-01-30T10:47:25.845Z,65434.5
2018-01-30T10:48:25.844Z,65289.1
2018-01-30T11:00:28.583Z,65289.1
2018-01-30T11:01:25.846Z,65310.3
2018-01-30T11:02:25.850Z,65389.5
2018-01-30T11:03:25.840Z,65535.0
2018-01-30T11:15:26.968Z,65535.0
2018-01-30T11:30:26.178Z,65535.0
2018-01-30T11:45:26.980Z,65535.0
2018-01-30T12:00:25.847Z,65535.0
2018-01-30T12:09:26.064Z,64848.3
2018-01-30T12:10:25.860Z,63930.4
2018-01-30T12:11:25.835Z,62873.3
2018-01-30T12:12:25.839Z,61913.3
2018-01-30T12:13:25.833Z,61127.8
2018-01-30T12:14:26.072Z,60540.5
2018-01-30T12:15:25.837Z,60092.9
2018-01-30T12:16:25.834Z,59674.7
2018-01-30T12:17:25.834Z,59314.0
2018-01-30T12:18:25.841Z,59008.7
2018-01-30T12:21:25.838Z,58960.3
2018-01-30T12:22:25.838Z,58715.0
2018-01-30T12:24:26.075Z,59401.7
2018-01-30T12:25:25.866Z,60117.7
2018-01-30T12:26:25.841Z,60798.4
2018-01-30T12:27:25.837Z,61229.8
2018-01-30T12:28:25.839Z,61459.7
2018-01-30T12:29:26.081Z,61273.8
2018-01-30T12:30:25.839Z,60817.8
2018-01-30T12:31:25.841Z,60301.1
2018-01-30T12:32:25.907Z,59942.3
2018-01-30T12:33:25.843Z,60011.2
2018-01-30T12:36:26.151Z,60059.6
2018-01-30T12:37:25.842Z,60304.9
2018-01-30T12:39:25.881Z,59875.7
2018-01-30T12:40:25.848Z,60077.5
2018-01-30T12:41:26.127Z,60453.9
2018-01-30T12:42:25.856Z,60982.5
2018-01-30T12:43:25.847Z,61538.1
2018-01-30T12:44:25.849Z,62311.4
2018-01-30T12:45:25.878Z,63214.9
2018-01-30T12:46:26.062Z,64149.8
2018-01-30T12:47:25.850Z,64869.3
2018-01-30T12:48:25.856Z,65105.7
2018-01-30T12:54:25.853Z,65535.0
2018-01-30T13:00:25.844Z,65286.5
2018-01-30T13:05:25.848Z,64942.6
2018-01-30T13:08:25.873Z,64477.7
2018-01-30T13:09:26.085Z,63041.2
2018-01-30T13:10:25.851Z,61409.6
2018-01-30T13:11:25.850Z,59840.8
2018-01-30T13:12:25.876Z,58608.2
2018-01-30T13:13:25.851Z,57873.4
2018-01-30T13:14:26.088Z,57754.0
2018-01-30T13:15:25.857Z,57912.1
2018-01-30T13:18:25.880Z,57774.6
2018-01-30T13:19:26.072Z,56858.3
2018-01-30T13:20:25.858Z,55520.3
2018-01-30T13:21:25.864Z,53509.6
2018-01-30T13:22:25.893Z,51668.5
2018-01-30T13:23:25.861Z,50376.0
2018-01-30T13:24:26.064Z,50110.7
2018-01-30T13:25:25.863Z,50702.1
2018-01-30T13:26:25.865Z,51785.3
2018-01-30T13:27:25.862Z,52710.3
2018-01-30T13:28:25.886Z,53445.1
2018-01-30T13:29:26.070Z,53564.5
2018-01-30T13:30:25.863Z,53614.8
2018-01-30T13:33:25.898Z,53752.3
2018-01-30T13:34:26.067Z,54668.7
2018-01-30T13:35:25.864Z,56350.5
2018-01-30T13:36:25.868Z,57778.5
2018-01-30T13:37:25.868Z,58349.7
2018-01-30T13:38:25.861Z,58587.7
2018-01-30T13:39:26.108Z,58463.6
2018-01-30T13:40:25.869Z,57629.4
2018-01-30T13:41:25.861Z,56214.1
2018-01-30T13:42:25.862Z,54659.1
2018-01-30T13:43:25.862Z,53527.5
2018-01-30T13:44:26.092Z,53179.7
2018-01-30T13:45:25.887Z,53219.7
2018-01-30T13:51:26.167Z,53802.5
2018-01-30T13:53:25.856Z,55072.4
2018-01-30T13:54:25.850Z,56591.7
2018-01-30T13:55:25.847Z,58417.7
2018-01-30T13:56:25.848Z,60292.0
2018-01-30T13:57:26.087Z,62192.9
2018-01-30T13:58:25.846Z,64055.6
2018-01-30T13:59:25.850Z,65187.2
2018-01-30T14:00:25.850Z,65535.0
2018-01-30T14:03:26.090Z,65092.3
2018-01-30T14:07:25.958Z,64963.1
2018-01-30T14:08:26.079Z,63815.3
2018-01-30T14:11:25.846Z,63380.9
2018-01-30T14:12:25.848Z,61909.7
2018-01-30T14:13:26.134Z,60165.9
2018-01-30T14:14:25.851Z,58549.5
2018-01-30T14:15:25.848Z,57125.9
2018-01-30T14:16:25.849Z,55561.3
2018-01-30T14:17:25.849Z,54180.7
2018-01-30T14:18:26.345Z,53713.1
2018-01-30T14:19:25.850Z,53508.0
2018-01-30T14:20:25.857Z,52953.8
2018-01-30T14:21:25.850Z,52183.3
2018-01-30T14:22:25.879Z,50867.9
2018-01-30T14:23:26.081Z,50915.3
2018-01-30T14:24:25.877Z,50298.5
2018-01-30T14:25:25.852Z,49586.9
2018-01-30T14:26:25.852Z,48598.7
2018-01-30T14:27:25.829Z,48006.6
2018-01-30T14:28:26.088Z,47940.6
2018-01-30T14:29:25.852Z,48035.1
2018-01-30T14:30:25.919Z,48323.5
2018-01-30T14:31:25.862Z,48751.8
2018-01-30T14:32:25.859Z,49207.0
2018-01-30T14:33:26.101Z,49232.7
2018-01-30T14:34:25.857Z,48557.5
2018-01-30T14:35:25.826Z,47722.1
2018-01-30T14:36:25.861Z,46639.8
2018-01-30T14:37:25.864Z,46038.2
2018-01-30T14:38:26.103Z,45085.8
2018-01-30T14:39:25.857Z,43636.1
2018-01-30T14:40:25.859Z,42178.4
2018-01-30T14:41:25.859Z,41283.1
2018-01-30T14:42:25.858Z,40930.7
2018-01-30T14:43:26.092Z,40297.8
2018-01-30T14:44:25.893Z,39140.3
2018-01-30T14:45:25.861Z,37455.3
2018-01-30T14:46:25.861Z,35634.4
2018-01-30T14:47:25.867Z,33530.8
2018-01-30T14:49:26.155Z,31251.9
2018-01-30T14:50:25.848Z,28944.7
2018-01-30T14:51:25.848Z,27269.9
2018-01-30T14:52:25.851Z,26102.9
2018-01-30T14:53:25.855Z,25015.8
2018-01-30T14:54:26.081Z,23858.1
2018-01-30T14:55:25.878Z,22714.8
2018-01-30T14:56:25.850Z,21631.1
2018-01-30T14:57:25.851Z,20617.5
2018-01-30T14:58:25.852Z,19606.3
2018-01-30T14:59:26.115Z,18549.9
2018-01-30T15:00:25.851Z,17738.9
2018-01-30T15:01:25.849Z,17150.4
2018-01-30T15:02:25.851Z,16667.7
2018-01-30T15:03:25.853Z,16232.8
2018-01-30T15:04:26.085Z,15939.1
2018-01-30T15:05:25.877Z,15647.7
2018-01-30T15:06:25.850Z,15201.9
2018-01-30T15:07:25.852Z,14718.8
2018-01-30T15:08:25.853Z,14324.7
2018-01-30T15:09:26.144Z,14004.5
2018-01-30T15:10:25.852Z,13627.8
2018-01-30T15:11:25.850Z,13265.2
2018-01-30T15:12:25.851Z,12937.7
2018-01-30T15:13:25.852Z,12696.9
2018-01-30T15:14:26.133Z,12512.1
2018-01-30T15:15:25.859Z,12297.2
2018-01-30T15:16:25.852Z,11980.2
2018-01-30T15:17:25.858Z,11645.9
2018-01-30T15:18:25.853Z,11322.1
2018-01-30T15:19:26.082Z,10989.7
2018-01-30T15:20:25.882Z,10657.9
2018-01-30T15:21:25.860Z,10371.9
2018-01-30T15:22:25.854Z,10101.1
2018-01-30T15:23:25.857Z,9898.1
2018-01-30T15:24:26.392Z,9722.9
2018-01-30T15:25:25.861Z,9559.0
2018-01-30T15:26:25.858Z,9400.2
2018-01-30T15:27:25.860Z,9270.3
2018-01-30T15:28:25.857Z,9136.6
2018-01-30T15:29:26.087Z,9011.1
2018-01-30T15:30:25.882Z,8921.0
2018-01-30T15:31:25.860Z,8835.4
2018-01-30T15:32:25.860Z,8804.8
2018-01-30T15:33:25.861Z,8754.2
2018-01-30T15:34:26.111Z,8698.7
2018-01-30T15:35:25.859Z,8625.7
2018-01-30T15:36:25.861Z,8512.9
2018-01-30T15:37:25.863Z,8345.9
2018-01-30T15:38:25.869Z,8107.8
2018-01-30T15:39:26.131Z,7817.6
2018-01-30T15:40:25.864Z,7547.4
2018-01-30T15:41:25.863Z,7277.2
2018-01-30T15:42:25.890Z,6999.7
2018-01-30T15:43:25.865Z,6713.1
2018-01-30T15:44:26.099Z,6413.5
2018-01-30T15:45:25.894Z,6079.2
2018-01-30T15:46:25.861Z,5740.1
2018-01-30T15:47:25.907Z,5374.9
2018-01-30T15:48:25.867Z,5025.7
2018-01-30T15:49:26.068Z,4666.4
2018-01-30T15:50:25.862Z,4330.0
2018-01-30T15:51:25.896Z,4004.7
2018-01-30T15:52:25.863Z,3700.4
2018-01-30T15:53:25.864Z,3418.9
2018-01-30T15:54:26.123Z,3158.8
2018-01-30T15:55:25.889Z,2916.8
2018-01-30T15:57:25.880Z,2691.3
2018-01-30T15:58:25.854Z,2484.6
2018-01-30T15:59:26.118Z,2294.3
2018-01-30T16:00:25.854Z,2118.9
2018-01-30T16:01:25.856Z,1958.2
2018-01-30T16:02:25.848Z,1812.1
2018-01-30T16:03:25.850Z,1679.7
2018-01-30T16:04:26.154Z,1559.2
2018-01-30T16:05:25.848Z,1450.0
2018-01-30T16:06:25.856Z,1350.8
2018-01-30T16:07:25.851Z,1260.5
2018-01-30T16:08:25.851Z,1175.5
2018-01-30T16:09:26.088Z,1091.8
2018-01-30T16:10:25.854Z,1010.5
2018-01-30T16:11:25.852Z,931.5
2018-01-30T16:12:25.878Z,856.1
2018-01-30T16:13:25.851Z,779.5
2018-01-30T16:14:26.121Z,704.5
2018-01-30T16:15:25.858Z,632.9
2018-01-30T16:16:25.851Z,565.9
2018-01-30T16:17:25.853Z,503.7
2018-01-30T16:18:25.851Z,445.9
2018-01-30T16:19:26.124Z,392.1
2018-01-30T16:20:25.890Z,342.7
2018-01-30T16:21:25.878Z,297.3
2018-01-30T16:22:25.850Z,256.7
2018-01-30T16:23:25.851Z,220.3
2018-01-30T16:24:26.082Z,187.6
2018-01-30T16:25:25.851Z,158.7
2018-01-30T16:26:25.876Z,133.4
2018-01-30T16:27:25.852Z,111.7
2018-01-30T16:28:25.853Z,93.9
2018-01-30T16:29:26.082Z,79.7
2018-01-30T16:30:25.850Z,67.8
2018-01-30T16:31:25.888Z,57.3
2018-01-30T16:32:25.849Z,47.9
2018-01-30T16:33:25.849Z,39.9
2018-01-30T16:34:26.057Z,33.3
2018-01-30T16:35:25.851Z,28.1
2018-01-30T16:36:25.856Z,24.1
2018-01-30T16:37:25.876Z,20.8
2018-01-30T16:38:25.851Z,18.2
2018-01-30T16:39:26.054Z,15.9
2018-01-30T16:40:25.850Z,13.7
2018-01-30T16:41:25.821Z,11.7
2018-01-30T16:42:25.885Z,10.1
2018-01-30T16:43:25.852Z,8.7
2018-01-30T16:44:26.064Z,7.4
2018-01-30T16:45:25.878Z,6.3
2018-01-30T16:46:25.851Z,5.4
2018-01-30T16:47:25.854Z,4.5
2018-01-30T16:48:25.886Z,3.9
2018-01-30T16:49:26.058Z,3.3
2018-01-30T16:50:25.851Z,2.8
2018-01-30T16:51:25.851Z,2.4
2018-01-30T16:52:25.850Z,2.1
2018-01-30T16:53:25.851Z,1.9
2018-01-30T16:54:26.093Z,1.7
2018-01-30T16:55:25.853Z,1.5
2018-01-30T16:56:25.852Z,1.3
2018-01-30T16:57:25.858Z,1.1
2018-01-30T16:58:25.858Z,0.9
2018-01-30T16:59:26.094Z,0.8
2018-01-30T17:00:25.852Z,0.7
2018-01-30T17:01:25.857Z,0.5
2018-01-30T17:03:25.856Z,0.4
2018-01-30T17:04:26.098Z,0.3
2018-01-30T17:06:25.920Z,0.2
2018-01-30T17:07:25.856Z,0.1
2018-01-30T19:45:26.184Z,0.1
2018-01-30T20:08:26.140Z,0.1
2018-01-30T20:15:26.183Z,0.1
2018-01-30T20:23:26.092Z,0.2
2018-01-30T20:26:25.932Z,0.3
2018-01-30T20:29:26.098Z,0.4
2018-01-30T20:30:25.859Z,0.5
2018-01-30T20:32:25.861Z,0.6
2018-01-30T20:33:25.861Z,0.7
2018-01-30T20:35:26.132Z,0.8
2018-01-30T20:36:25.862Z,0.9
2018-01-30T20:43:26.094Z,1.0
2018-01-30T20:45:25.972Z,1.0
2018-01-30T21:00:28.779Z,1.0
2018-01-30T21:15:26.208Z,1.0
2018-01-30T21:30:26.225Z,1.0
2018-01-30T21:45:26.274Z,1.0
2018-01-30T22:00:25.879Z,1.0
2018-01-30T22:10:26.196Z,0.9
2018-01-30T22:15:26.243Z,0.9
2018-01-30T22:22:25.870Z,0.8
2018-01-30T22:25:26.203Z,0.9
2018-01-30T22:30:26.111Z,0.9
2018-01-30T22:34:25.876Z,0.8
2018-01-30T22:35:26.136Z,0.7
2018-01-30T22:36:25.872Z,0.8
2018-01-30T22:38:25.845Z,0.7
2018-01-30T22:45:26.149Z,0.7
